sensor_id;sensor_type;location;lat;lon;timestamp;pressure;altitude;pressure_sealevel;temperature;humidity
28935;BME280;16044;52.726;-2.108;2024-02-04T00:01:04;101451.16;;;9.13;100.00
28935;BME280;16044;52.726;-2.108;2024-02-04T00:03:37;101456.44;;;9.15;100.00
28935;BME280;16044;52.726;-2.108;2024-02-04T00:06:07;101450.31;;;9.23;100.00
28935;BME280;16044;52.726;-2.108;2024-02-04T00:08:38;101470.66;;;9.27;100.00
28935;BME280;16044;52.726;-2.108;2024-02-04T00:11:08;101466.66;;;9.31;100.00
28935;BME280;16044;52.726;-2.108;2024-02-04T00:13:39;101474.63;;;9.32;100.00
28935;BME280;16044;52.726;-2.108;2024-02-04T00:16:09;101470.06;;;9.33;100.00
28935;BME280;16044;52.726;-2.108;2024-02-04T00:18:42;101467.09;;;9.36;100.00
28935;BME280;16044;52.726;-2.108;2024-02-04T00:21:13;101454.97;;;9.40;100.00
28935;BME280;16044;52.726;-2.108;2024-02-04T00:23:43;101454.97;;;9.40;100.00
28935;BME280;16044;52.726;-2.108;2024-02-04T00:26:14;101462.06;;;9.41;100.00
28935;BME280;16044;52.726;-2.108;2024-02-04T00:28:44;101454.97;;;9.40;100.00
28935;BME280;16044;52.726;-2.108;2024-02-04T00:31:14;101445.13;;;9.39;100.00
28935;BME280;16044;52.726;-2.108;2024-02-04T00:33:47;101441.13;;;9.43;100.00
28935;BME280;16044;52.726;-2.108;2024-02-04T00:36:18;101434.44;;;9.47;100.00
28935;BME280;16044;52.726;-2.108;2024-02-04T00:38:49;101429.47;;;9.43;100.00
28935;BME280;16044;52.726;-2.108;2024-02-04T00:41:19;101433.75;;;9.45;100.00
28935;BME280;16044;52.726;-2.108;2024-02-04T00:43:49;101423.91;;;9.44;100.00
28935;BME280;16044;52.726;-2.108;2024-02-04T00:46:20;101426.75;;;9.43;100.00
28935;BME280;16044;52.726;-2.108;2024-02-04T00:48:52;101431.88;;;9.46;100.00
28935;BME280;16044;52.726;-2.108;2024-02-04T00:51:23;101413.09;;;9.44;100.00
28935;BME280;16044;52.726;-2.108;2024-02-04T00:53:54;101411.78;;;9.48;100.00
28935;BME280;16044;52.726;-2.108;2024-02-04T00:56:24;101405.94;;;9.43;100.00
28935;BME280;16044;52.726;-2.108;2024-02-04T00:58:54;101398.56;;;9.45;100.00
28935;BME280;16044;52.726;-2.108;2024-02-04T01:01:25;101394.44;;;9.41;100.00
28935;BME280;16044;52.726;-2.108;2024-02-04T01:03:58;101401.28;;;9.45;100.00
28935;BME280;16044;52.726;-2.108;2024-02-04T01:06:28;101387.88;;;9.44;100.00
28935;BME280;16044;52.726;-2.108;2024-02-04T01:09:17;101373.34;;;9.45;100.00
28935;BME280;16044;52.726;-2.108;2024-02-04T01:11:47;101377.19;;;9.42;100.00
28935;BME280;16044;52.726;-2.108;2024-02-04T01:14:20;101383.03;;;9.47;100.00
28935;BME280;16044;52.726;-2.108;2024-02-04T01:16:50;101379.31;;;9.48;100.00
28935;BME280;16044;52.726;-2.108;2024-02-04T01:19:23;101382.34;;;9.45;100.00
28935;BME280;16044;52.726;-2.108;2024-02-04T01:21:54;101379.63;;;9.45;100.00
28935;BME280;16044;52.726;-2.108;2024-02-04T01:24:25;101385.75;;;9.47;100.00
28935;BME280;16044;52.726;-2.108;2024-02-04T01:26:55;101384.88;;;9.47;100.00
28935;BME280;16044;52.726;-2.108;2024-02-04T01:29:26;101378.31;;;9.49;100.00
28935;BME280;16044;52.726;-2.108;2024-02-04T01:31:56;101379.03;;;9.51;100.00
28935;BME280;16044;52.726;-2.108;2024-02-04T01:34:29;101381.72;;;9.51;100.00
28935;BME280;16044;52.726;-2.108;2024-02-04T01:37:00;101378.00;;;9.52;100.00
28935;BME280;16044;52.726;-2.108;2024-02-04T01:39:31;101387.56;;;9.47;100.00
28935;BME280;16044;52.726;-2.108;2024-02-04T01:42:02;101402.81;;;9.48;100.00
28935;BME280;16044;52.726;-2.108;2024-02-04T01:44:32;101393.69;;;9.49;100.00
28935;BME280;16044;52.726;-2.108;2024-02-04T01:47:03;101395.97;;;9.53;100.00
28935;BME280;16044;52.726;-2.108;2024-02-04T01:49:37;101398.81;;;9.52;100.00
28935;BME280;16044;52.726;-2.108;2024-02-04T01:52:08;101384.28;;;9.53;100.00
28935;BME280;16044;52.726;-2.108;2024-02-04T01:54:40;101382.91;;;9.39;100.00
28935;BME280;16044;52.726;-2.108;2024-02-04T01:57:12;101383.31;;;9.44;100.00
28935;BME280;16044;52.726;-2.108;2024-02-04T01:59:44;101375.47;;;9.51;100.00
28935;BME280;16044;52.726;-2.108;2024-02-04T02:02:15;101380.16;;;9.49;100.00
28935;BME280;16044;52.726;-2.108;2024-02-04T02:04:49;101373.47;;;9.53;100.00
28935;BME280;16044;52.726;-2.108;2024-02-04T02:07:21;101370.22;;;9.49;100.00
28935;BME280;16044;52.726;-2.108;2024-02-04T02:09:54;101361.22;;;9.49;100.00
28935;BME280;16044;52.726;-2.108;2024-02-04T02:12:27;101362.78;;;9.51;100.00
28935;BME280;16044;52.726;-2.108;2024-02-04T02:15:03;101360.94;;;9.52;100.00
28935;BME280;16044;52.726;-2.108;2024-02-04T02:17:44;101358.22;;;9.52;100.00
28935;BME280;16044;52.726;-2.108;2024-02-04T02:20:27;101357.63;;;9.58;100.00
28935;BME280;16044;52.726;-2.108;2024-02-04T02:23:06;101363.91;;;9.59;100.00
28935;BME280;16044;52.726;-2.108;2024-02-04T02:25:41;101355.59;;;9.60;100.00
28935;BME280;16044;52.726;-2.108;2024-02-04T02:28:11;101356.88;;;9.66;100.00
28935;BME280;16044;52.726;-2.108;2024-02-04T02:30:42;101354.34;;;9.64;100.00
28935;BME280;16044;52.726;-2.108;2024-02-04T02:33:12;101348.75;;;9.66;100.00
28935;BME280;16044;52.726;-2.108;2024-02-04T02:35:43;101357.19;;;9.63;100.00
28935;BME280;16044;52.726;-2.108;2024-02-04T02:38:23;101344.63;;;9.62;100.00
28935;BME280;16044;52.726;-2.108;2024-02-04T02:41:03;101351.16;;;9.69;100.00
28935;BME280;16044;52.726;-2.108;2024-02-04T02:43:34;101352.19;;;9.68;100.00
28935;BME280;16044;52.726;-2.108;2024-02-04T02:46:06;101340.94;;;9.63;100.00
28935;BME280;16044;52.726;-2.108;2024-02-04T02:48:37;101330.97;;;9.63;100.00
28935;BME280;16044;52.726;-2.108;2024-02-04T02:51:08;101356.59;;;9.69;100.00
28935;BME280;16044;52.726;-2.108;2024-02-04T02:53:38;101351.47;;;9.66;100.00
28935;BME280;16044;52.726;-2.108;2024-02-04T02:56:11;101338.94;;;9.65;100.00
28935;BME280;16044;52.726;-2.108;2024-02-04T02:58:42;101336.66;;;9.60;100.00
28935;BME280;16044;52.726;-2.108;2024-02-04T03:01:12;101343.50;;;9.64;100.00
28935;BME280;16044;52.726;-2.108;2024-02-04T03:03:42;101334.13;;;9.59;100.00
28935;BME280;16044;52.726;-2.108;2024-02-04T03:06:13;101345.81;;;9.59;100.00
28935;BME280;16044;52.726;-2.108;2024-02-04T03:08:43;101350.06;;;9.62;100.00
28935;BME280;16044;52.726;-2.108;2024-02-04T03:11:16;101340.94;;;9.63;100.00
28935;BME280;16044;52.726;-2.108;2024-02-04T03:13:47;101337.22;;;9.64;100.00
28935;BME280;16044;52.726;-2.108;2024-02-04T03:16:17;101329.97;;;9.64;100.00
28935;BME280;16044;52.726;-2.108;2024-02-04T03:18:47;101324.72;;;9.63;100.00
28935;BME280;16044;52.726;-2.108;2024-02-04T03:21:18;101332.06;;;9.70;100.00
28935;BME280;16044;52.726;-2.108;2024-02-04T03:23:49;101327.97;;;9.66;100.00
28935;BME280;16044;52.726;-2.108;2024-02-04T03:26:22;101322.22;;;9.69;100.00
28935;BME280;16044;52.726;-2.108;2024-02-04T03:28:52;101312.28;;;9.70;100.00
28935;BME280;16044;52.726;-2.108;2024-02-04T03:31:23;101326.81;;;9.69;100.00
28935;BME280;16044;52.726;-2.108;2024-02-04T03:33:53;101333.38;;;9.66;100.00
28935;BME280;16044;52.726;-2.108;2024-02-04T03:36:24;101329.50;;;9.69;100.00
28935;BME280;16044;52.726;-2.108;2024-02-04T03:38:55;101319.53;;;9.69;100.00
28935;BME280;16044;52.726;-2.108;2024-02-04T03:41:28;101307.00;;;9.68;100.00
28935;BME280;16044;52.726;-2.108;2024-02-04T03:43:58;101305.56;;;9.74;100.00
28935;BME280;16044;52.726;-2.108;2024-02-04T03:46:29;101297.72;;;9.71;100.00
28935;BME280;16044;52.726;-2.108;2024-02-04T03:48:59;101288.75;;;9.70;100.00
28935;BME280;16044;52.726;-2.108;2024-02-04T03:51:29;101280.78;;;9.69;100.00
28935;BME280;16044;52.726;-2.108;2024-02-04T03:54:00;101285.78;;;9.64;100.00
28935;BME280;16044;52.726;-2.108;2024-02-04T03:56:33;101275.66;;;9.66;100.00
28935;BME280;16044;52.726;-2.108;2024-02-04T03:59:03;101268.28;;;9.68;100.00
28935;BME280;16044;52.726;-2.108;2024-02-04T04:01:33;101267.47;;;9.57;100.00
28935;BME280;16044;52.726;-2.108;2024-02-04T04:04:04;101273.13;;;9.64;100.00
28935;BME280;16044;52.726;-2.108;2024-02-04T04:06:35;101273.13;;;9.64;100.00
28935;BME280;16044;52.726;-2.108;2024-02-04T04:09:05;101264.59;;;9.59;100.00
28935;BME280;16044;52.726;-2.108;2024-02-04T04:11:39;101265.44;;;9.60;100.00
28935;BME280;16044;52.726;-2.108;2024-02-04T04:14:09;101269.19;;;9.59;100.00
28935;BME280;16044;52.726;-2.108;2024-02-04T04:16:40;101265.78;;;9.56;100.00
28935;BME280;16044;52.726;-2.108;2024-02-04T04:19:10;101261.91;;;9.59;100.00
28935;BME280;16044;52.726;-2.108;2024-02-04T04:21:41;101267.59;;;9.56;100.00
28935;BME280;16044;52.726;-2.108;2024-02-04T04:24:11;101271.75;;;9.50;100.00
28935;BME280;16044;52.726;-2.108;2024-02-04T04:26:45;101270.78;;;9.51;100.00
28935;BME280;16044;52.726;-2.108;2024-02-04T04:29:15;101276.19;;;9.51;100.00
28935;BME280;16044;52.726;-2.108;2024-02-04T04:31:46;101260.94;;;9.50;100.00
28935;BME280;16044;52.726;-2.108;2024-02-04T04:34:16;101261.81;;;9.51;100.00
28935;BME280;16044;52.726;-2.108;2024-02-04T04:36:48;101265.66;;;9.48;100.00
28935;BME280;16044;52.726;-2.108;2024-02-04T04:39:18;101269.47;;;9.55;100.00
28935;BME280;16044;52.726;-2.108;2024-02-04T04:41:51;101260.38;;;9.47;100.00
28935;BME280;16044;52.726;-2.108;2024-02-04T04:44:24;101265.50;;;9.50;100.00
28935;BME280;16044;52.726;-2.108;2024-02-04T04:46:55;101258.94;;;9.52;100.00
28935;BME280;16044;52.726;-2.108;2024-02-04T04:49:25;101248.00;;;9.44;100.00
28935;BME280;16044;52.726;-2.108;2024-02-04T04:51:56;101252.81;;;9.50;100.00
28935;BME280;16044;52.726;-2.108;2024-02-04T04:54:27;101238.44;;;9.50;100.00
28935;BME280;16044;52.726;-2.108;2024-02-04T04:57:00;101242.69;;;9.52;100.00
28935;BME280;16044;52.726;-2.108;2024-02-04T04:59:31;101239.97;;;9.52;100.00
28935;BME280;16044;52.726;-2.108;2024-02-04T05:02:03;101226.84;;;9.57;100.00
28935;BME280;16044;52.726;-2.108;2024-02-04T05:04:34;101222.75;;;9.53;100.00
28935;BME280;16044;52.726;-2.108;2024-02-04T05:07:04;101236.28;;;9.53;100.00
28935;BME280;16044;52.726;-2.108;2024-02-04T05:09:35;101224.75;;;9.51;100.00
28935;BME280;16044;52.726;-2.108;2024-02-04T05:12:08;101213.94;;;9.51;100.00
28935;BME280;16044;52.726;-2.108;2024-02-04T05:14:39;101215.34;;;9.55;100.00
28935;BME280;16044;52.726;-2.108;2024-02-04T05:17:10;101216.03;;;9.57;100.00
28935;BME280;16044;52.726;-2.108;2024-02-04T05:19:41;101218.44;;;9.61;100.00
28935;BME280;16044;52.726;-2.108;2024-02-04T05:22:11;101218.59;;;9.59;100.00
28935;BME280;16044;52.726;-2.108;2024-02-04T05:24:42;101217.56;;;9.60;100.00
28935;BME280;16044;52.726;-2.108;2024-02-04T05:27:15;101217.06;;;9.56;100.00
28935;BME280;16044;52.726;-2.108;2024-02-04T05:29:45;101213.03;;;9.61;100.00
28935;BME280;16044;52.726;-2.108;2024-02-04T05:32:16;101213.03;;;9.61;100.00
28935;BME280;16044;52.726;-2.108;2024-02-04T05:34:46;101211.47;;;9.58;100.00
28935;BME280;16044;52.726;-2.108;2024-02-04T05:37:16;101223.84;;;9.61;100.00
28935;BME280;16044;52.726;-2.108;2024-02-04T05:39:47;101214.72;;;9.62;100.00
28935;BME280;16044;52.726;-2.108;2024-02-04T05:42:20;101232.69;;;9.63;100.00
28935;BME280;16044;52.726;-2.108;2024-02-04T05:44:50;101236.06;;;9.65;100.00
28935;BME280;16044;52.726;-2.108;2024-02-04T05:47:21;101230.66;;;9.65;100.00
28935;BME280;16044;52.726;-2.108;2024-02-04T05:49:51;101235.38;;;9.63;100.00
28935;BME280;16044;52.726;-2.108;2024-02-04T05:52:22;101230.66;;;9.65;100.00
28935;BME280;16044;52.726;-2.108;2024-02-04T05:54:52;101229.97;;;9.63;100.00
28935;BME280;16044;52.726;-2.108;2024-02-04T05:57:27;101223.25;;;9.67;100.00
28935;BME280;16044;52.726;-2.108;2024-02-04T05:59:57;101221.84;;;9.63;100.00
28935;BME280;16044;52.726;-2.108;2024-02-04T06:02:28;101219.53;;;9.68;100.00
28935;BME280;16044;52.726;-2.108;2024-02-04T06:04:58;101211.31;;;9.60;100.00
28935;BME280;16044;52.726;-2.108;2024-02-04T06:07:29;101201.72;;;9.65;100.00
28935;BME280;16044;52.726;-2.108;2024-02-04T06:09:59;101197.56;;;9.71;100.00
28935;BME280;16044;52.726;-2.108;2024-02-04T06:12:33;101187.06;;;9.68;100.00
28935;BME280;16044;52.726;-2.108;2024-02-04T06:15:05;101194.16;;;9.69;100.00
28935;BME280;16044;52.726;-2.108;2024-02-04T06:17:40;101198.03;;;9.66;100.00
28935;BME280;16044;52.726;-2.108;2024-02-04T06:20:11;101184.34;;;9.68;100.00
28935;BME280;16044;52.726;-2.108;2024-02-04T06:22:41;101191.38;;;9.61;100.00
28935;BME280;16044;52.726;-2.108;2024-02-04T06:25:11;101182.94;;;9.64;100.00
28935;BME280;16044;52.726;-2.108;2024-02-04T06:27:45;101174.25;;;9.60;100.00
28935;BME280;16044;52.726;-2.108;2024-02-04T06:30:15;101177.84;;;9.61;100.00
28935;BME280;16044;52.726;-2.108;2024-02-04T06:32:47;101188.53;;;9.62;100.00
28935;BME280;16044;52.726;-2.108;2024-02-04T06:35:18;101191.94;;;9.64;100.00
28935;BME280;16044;52.726;-2.108;2024-02-04T06:37:48;101192.78;;;9.65;100.00
28935;BME280;16044;52.726;-2.108;2024-02-04T06:40:19;101191.94;;;9.64;100.00
28935;BME280;16044;52.726;-2.108;2024-02-04T06:42:52;101206.59;;;9.62;100.00
28935;BME280;16044;52.726;-2.108;2024-02-04T06:45:22;101205.91;;;9.60;100.00
28935;BME280;16044;52.726;-2.108;2024-02-04T06:47:52;101205.50;;;9.54;100.00
28935;BME280;16044;52.726;-2.108;2024-02-04T06:50:23;101201.81;;;9.55;100.00
28935;BME280;16044;52.726;-2.108;2024-02-04T06:52:54;101208.69;;;9.50;100.00
28935;BME280;16044;52.726;-2.108;2024-02-04T06:55:24;101217.63;;;9.50;100.00
28935;BME280;16044;52.726;-2.108;2024-02-04T06:57:57;101208.53;;;9.51;100.00
28935;BME280;16044;52.726;-2.108;2024-02-04T07:00:27;101203.72;;;9.45;100.00
28935;BME280;16044;52.726;-2.108;2024-02-04T07:02:58;101208.75;;;9.40;100.00
28935;BME280;16044;52.726;-2.108;2024-02-04T07:05:28;101209.84;;;9.47;100.00
28935;BME280;16044;52.726;-2.108;2024-02-04T07:08:00;101208.53;;;9.51;100.00
28935;BME280;16044;52.726;-2.108;2024-02-04T07:10:31;101194.66;;;9.54;100.00
28935;BME280;16044;52.726;-2.108;2024-02-04T07:13:04;101193.69;;;9.55;100.00
28935;BME280;16044;52.726;-2.108;2024-02-04T07:15:35;101196.78;;;9.61;100.00
28935;BME280;16044;52.726;-2.108;2024-02-04T07:18:06;101183.81;;;9.64;100.00
28935;BME280;16044;52.726;-2.108;2024-02-04T07:20:36;101174.81;;;9.64;100.00
28935;BME280;16044;52.726;-2.108;2024-02-04T07:23:07;101165.41;;;9.68;100.00
28935;BME280;16044;52.726;-2.108;2024-02-04T07:25:37;101179.22;;;9.65;100.00
28935;BME280;16044;52.726;-2.108;2024-02-04T07:28:11;101180.91;;;9.66;100.00
28935;BME280;16044;52.726;-2.108;2024-02-04T07:30:41;101160.00;;;9.68;100.00
28935;BME280;16044;52.726;-2.108;2024-02-04T07:33:12;101166.78;;;9.72;100.00
28935;BME280;16044;52.726;-2.108;2024-02-04T07:35:42;101162.06;;;9.74;100.00
28935;BME280;16044;52.726;-2.108;2024-02-04T07:38:13;101167.69;;;9.81;100.00
28935;BME280;16044;52.726;-2.108;2024-02-04T07:40:43;101169.28;;;9.83;100.00
28935;BME280;16044;52.726;-2.108;2024-02-04T07:43:16;101178.94;;;9.86;100.00
28935;BME280;16044;52.726;-2.108;2024-02-04T07:45:47;101182.19;;;9.89;100.00
28935;BME280;16044;52.726;-2.108;2024-02-04T07:48:17;101184.59;;;9.92;100.00
28935;BME280;16044;52.726;-2.108;2024-02-04T07:50:48;101182.19;;;9.89;100.00
28935;BME280;16044;52.726;-2.108;2024-02-04T07:53:19;101184.94;;;9.98;100.00
28935;BME280;16044;52.726;-2.108;2024-02-04T07:55:50;101192.22;;;9.97;100.00
28935;BME280;16044;52.726;-2.108;2024-02-04T07:58:23;101179.38;;;9.99;100.00
28935;BME280;16044;52.726;-2.108;2024-02-04T08:00:54;101160.56;;;9.98;100.00
28935;BME280;16044;52.726;-2.108;2024-02-04T08:03:25;101151.75;;;9.95;100.00
28935;BME280;16044;52.726;-2.108;2024-02-04T08:05:55;101171.75;;;9.94;100.00
28935;BME280;16044;52.726;-2.108;2024-02-04T08:08:26;101179.16;;;9.92;100.00
28935;BME280;16044;52.726;-2.108;2024-02-04T08:10:56;101181.88;;;9.92;100.00
28935;BME280;16044;52.726;-2.108;2024-02-04T08:13:30;101169.47;;;9.90;100.00
28935;BME280;16044;52.726;-2.108;2024-02-04T08:16:00;101162.91;;;9.92;100.00
28935;BME280;16044;52.726;-2.108;2024-02-04T08:18:31;101165.63;;;9.92;100.00
28935;BME280;16044;52.726;-2.108;2024-02-04T08:21:02;101172.03;;;9.91;100.00
28935;BME280;16044;52.726;-2.108;2024-02-04T08:23:32;101189.13;;;9.92;100.00
28935;BME280;16044;52.726;-2.108;2024-02-04T08:26:03;101188.00;;;9.94;100.00
28935;BME280;16044;52.726;-2.108;2024-02-04T08:28:37;101202.53;;;9.93;100.00
28935;BME280;16044;52.726;-2.108;2024-02-04T08:31:07;101201.88;;;10.00;100.00
28935;BME280;16044;52.726;-2.108;2024-02-04T08:33:38;101194.78;;;9.99;100.00
28935;BME280;16044;52.726;-2.108;2024-02-04T08:36:08;101196.31;;;10.01;100.00
28935;BME280;16044;52.726;-2.108;2024-02-04T08:38:39;101204.69;;;10.08;100.00
28935;BME280;16044;52.726;-2.108;2024-02-04T08:41:10;101206.06;;;10.12;100.00
28935;BME280;16044;52.726;-2.108;2024-02-04T08:43:43;101212.19;;;10.14;100.00
28935;BME280;16044;52.726;-2.108;2024-02-04T08:46:13;101200.50;;;10.13;100.00
28935;BME280;16044;52.726;-2.108;2024-02-04T08:48:44;101194.75;;;10.17;100.00
28935;BME280;16044;52.726;-2.108;2024-02-04T08:51:14;101182.59;;;10.21;100.00
28935;BME280;16044;52.726;-2.108;2024-02-04T08:53:46;101195.53;;;10.27;100.00
28935;BME280;16044;52.726;-2.108;2024-02-04T08:56:16;101190.97;;;10.27;100.00
28935;BME280;16044;52.726;-2.108;2024-02-04T08:58:49;101186.53;;;10.26;100.00
28935;BME280;16044;52.726;-2.108;2024-02-04T09:01:19;101189.50;;;10.33;100.00
28935;BME280;16044;52.726;-2.108;2024-02-04T09:03:50;101194.25;;;10.31;100.00
28935;BME280;16044;52.726;-2.108;2024-02-04T09:06:20;101189.03;;;10.38;100.00
28935;BME280;16044;52.726;-2.108;2024-02-04T09:08:51;101204.66;;;10.44;100.00
28935;BME280;16044;52.726;-2.108;2024-02-04T09:11:21;101207.22;;;10.45;100.00
28935;BME280;16044;52.726;-2.108;2024-02-04T09:13:54;101204.34;;;10.47;100.00
28935;BME280;16044;52.726;-2.108;2024-02-04T09:16:25;101206.75;;;10.50;100.00
28935;BME280;16044;52.726;-2.108;2024-02-04T09:18:55;101199.28;;;10.52;100.00
28935;BME280;16044;52.726;-2.108;2024-02-04T09:21:26;101197.63;;;10.51;100.00
28935;BME280;16044;52.726;-2.108;2024-02-04T09:23:57;101192.88;;;10.53;100.00
28935;BME280;16044;52.726;-2.108;2024-02-04T09:26:27;101197.66;;;10.59;100.00
28935;BME280;16044;52.726;-2.108;2024-02-04T09:29:00;101183.41;;;10.57;100.00
28935;BME280;16044;52.726;-2.108;2024-02-04T09:31:30;101174.25;;;10.58;100.00
28935;BME280;16044;52.726;-2.108;2024-02-04T09:34:01;101180.75;;;10.65;100.00
28935;BME280;16044;52.726;-2.108;2024-02-04T09:36:33;101178.72;;;10.67;100.00
28935;BME280;16044;52.726;-2.108;2024-02-04T09:39:03;101176.69;;;10.69;100.00
28935;BME280;16044;52.726;-2.108;2024-02-04T09:41:34;101180.44;;;10.68;100.00
28935;BME280;16044;52.726;-2.108;2024-02-04T09:44:08;101178.78;;;10.76;100.00
28935;BME280;16044;52.726;-2.108;2024-02-04T09:46:42;101174.34;;;10.75;100.00
28935;BME280;16044;52.726;-2.108;2024-02-04T09:49:13;101173.72;;;10.81;100.00
28935;BME280;16044;52.726;-2.108;2024-02-04T09:51:45;101161.03;;;10.81;100.00
28935;BME280;16044;52.726;-2.108;2024-02-04T09:54:16;101165.09;;;10.85;100.00
28935;BME280;16044;52.726;-2.108;2024-02-04T09:56:48;101156.47;;;10.90;100.00
28935;BME280;16044;52.726;-2.108;2024-02-04T09:59:21;101155.28;;;10.92;100.00
28935;BME280;16044;52.726;-2.108;2024-02-04T10:01:52;101151.41;;;10.95;100.00
28935;BME280;16044;52.726;-2.108;2024-02-04T10:04:23;101160.91;;;10.99;100.00
28935;BME280;16044;52.726;-2.108;2024-02-04T10:06:54;101157.22;;;11.00;100.00
28935;BME280;16044;52.726;-2.108;2024-02-04T10:09:24;101151.78;;;11.00;100.00
28935;BME280;16044;52.726;-2.108;2024-02-04T10:11:55;101159.25;;;11.06;100.00
28935;BME280;16044;52.726;-2.108;2024-02-04T10:14:29;101156.84;;;11.03;100.00
28935;BME280;16044;52.726;-2.108;2024-02-04T10:17:00;101165.34;;;11.00;100.00
28935;BME280;16044;52.726;-2.108;2024-02-04T10:19:30;101167.19;;;11.00;100.00
28935;BME280;16044;52.726;-2.108;2024-02-04T10:22:03;101155.19;;;11.02;100.00
28935;BME280;16044;52.726;-2.108;2024-02-04T10:24:33;101174.16;;;11.02;100.00
28935;BME280;16044;52.726;-2.108;2024-02-04T10:27:04;101154.13;;;10.95;100.00
28935;BME280;16044;52.726;-2.108;2024-02-04T10:29:47;101151.78;;;11.00;100.00
28935;BME280;16044;52.726;-2.108;2024-02-04T10:32:21;101151.44;;;11.03;100.00
28935;BME280;16044;52.726;-2.108;2024-02-04T10:34:52;101152.13;;;11.05;100.00
28935;BME280;16044;52.726;-2.108;2024-02-04T10:37:23;101157.69;;;11.04;100.00
28935;BME280;16044;52.726;-2.108;2024-02-04T10:39:56;101155.56;;;11.16;100.00
28935;BME280;16044;52.726;-2.108;2024-02-04T10:42:27;101154.91;;;11.22;100.00
28935;BME280;16044;52.726;-2.108;2024-02-04T10:45:03;101160.69;;;11.27;100.00
28935;BME280;16044;52.726;-2.108;2024-02-04T10:47:38;101146.94;;;11.28;100.00
28935;BME280;16044;52.726;-2.108;2024-02-04T10:50:09;101148.84;;;11.36;100.00
28935;BME280;16044;52.726;-2.108;2024-02-04T10:52:44;101150.53;;;11.37;100.00
28935;BME280;16044;52.726;-2.108;2024-02-04T10:55:21;101149.84;;;11.43;100.00
28935;BME280;16044;52.726;-2.108;2024-02-04T10:57:58;101160.41;;;11.46;100.00
28935;BME280;16044;52.726;-2.108;2024-02-04T11:00:32;101146.81;;;11.46;100.00
28935;BME280;16044;52.726;-2.108;2024-02-04T11:03:05;101146.50;;;11.49;100.00
28935;BME280;16044;52.726;-2.108;2024-02-04T11:05:36;101154.28;;;11.52;100.00
28935;BME280;16044;52.726;-2.108;2024-02-04T11:08:06;101148.53;;;11.47;100.00
28935;BME280;16044;52.726;-2.108;2024-02-04T11:10:39;101145.47;;;11.50;100.00
28935;BME280;16044;52.726;-2.108;2024-02-04T11:13:10;101133.44;;;11.53;100.00
28935;BME280;16044;52.726;-2.108;2024-02-04T11:15:44;101136.50;;;11.58;100.00
28935;BME280;16044;52.726;-2.108;2024-02-04T11:18:43;101143.13;;;11.64;100.00
28935;BME280;16044;52.726;-2.108;2024-02-04T11:21:38;101140.41;;;11.64;100.00
28935;BME280;16044;52.726;-2.108;2024-02-04T11:24:31;101141.06;;;11.66;100.00
28935;BME280;16044;52.726;-2.108;2024-02-04T11:27:12;101137.03;;;11.78;100.00
28935;BME280;16044;52.726;-2.108;2024-02-04T11:29:43;101135.31;;;11.77;100.00
28935;BME280;16044;52.726;-2.108;2024-02-04T11:32:17;101130.91;;;11.76;100.00
28935;BME280;16044;52.726;-2.108;2024-02-04T11:34:48;101133.63;;;11.84;100.00
28935;BME280;16044;52.726;-2.108;2024-02-04T11:37:19;101131.28;;;11.89;100.00
28935;BME280;16044;52.726;-2.108;2024-02-04T11:39:51;101132.66;;;11.94;100.00
28935;BME280;16044;52.726;-2.108;2024-02-04T11:42:23;101128.94;;;11.95;100.00
28935;BME280;16044;52.726;-2.108;2024-02-04T11:45:06;101121.78;;;11.94;100.00
28935;BME280;16044;52.726;-2.108;2024-02-04T11:47:40;101130.94;;;11.93;100.00
28935;BME280;16044;52.726;-2.108;2024-02-04T11:50:11;101116.03;;;11.97;100.00
28935;BME280;16044;52.726;-2.108;2024-02-04T11:52:42;101115.66;;;12.00;100.00
28935;BME280;16044;52.726;-2.108;2024-02-04T11:55:15;101119.06;;;12.02;100.00
28935;BME280;16044;52.726;-2.108;2024-02-04T11:57:46;101116.84;;;11.97;100.00
28935;BME280;16044;52.726;-2.108;2024-02-04T12:00:17;101128.91;;;12.03;100.00
28935;BME280;16044;52.726;-2.108;2024-02-04T12:02:59;101124.84;;;11.99;100.00
28935;BME280;16044;52.726;-2.108;2024-02-04T12:05:32;101124.50;;;12.02;100.00
28935;BME280;16044;52.726;-2.108;2024-02-04T12:08:05;101121.97;;;12.00;100.00
28935;BME280;16044;52.726;-2.108;2024-02-04T12:10:37;101106.66;;;11.99;100.00
28935;BME280;16044;52.726;-2.108;2024-02-04T12:13:08;101119.41;;;11.99;100.00
28935;BME280;16044;52.726;-2.108;2024-02-04T12:15:40;101104.63;;;12.01;100.00
28935;BME280;16044;52.726;-2.108;2024-02-04T12:18:14;101099.19;;;12.01;100.00
28935;BME280;16044;52.726;-2.108;2024-02-04T12:20:48;101103.13;;;11.99;100.00
28935;BME280;16044;52.726;-2.108;2024-02-04T12:23:20;101100.41;;;11.99;100.00
28935;BME280;16044;52.726;-2.108;2024-02-04T12:25:53;101091.56;;;11.97;100.00
28935;BME280;16044;52.726;-2.108;2024-02-04T12:28:23;101107.53;;;11.92;100.00
28935;BME280;16044;52.726;-2.108;2024-02-04T12:30:54;101092.56;;;11.96;100.00
28935;BME280;16044;52.726;-2.108;2024-02-04T12:33:28;101077.47;;;12.01;100.00
28935;BME280;16044;52.726;-2.108;2024-02-04T12:35:58;101093.56;;;12.11;100.00
28935;BME280;16044;52.726;-2.108;2024-02-04T12:38:29;101081.66;;;12.20;100.00
28935;BME280;16044;52.726;-2.108;2024-02-04T12:41:03;101085.06;;;12.31;100.00
28935;BME280;16044;52.726;-2.108;2024-02-04T12:43:34;101084.53;;;12.35;100.00
28935;BME280;16044;52.726;-2.108;2024-02-04T12:46:04;101101.84;;;12.42;100.00
28935;BME280;16044;52.726;-2.108;2024-02-04T12:48:38;101102.69;;;12.43;100.00
28935;BME280;16044;52.726;-2.108;2024-02-04T12:51:10;101097.78;;;12.38;100.00
28935;BME280;16044;52.726;-2.108;2024-02-04T12:53:40;101089.09;;;12.43;100.00
28935;BME280;16044;52.726;-2.108;2024-02-04T12:56:11;101071.94;;;12.42;100.00
28935;BME280;16044;52.726;-2.108;2024-02-04T12:58:44;101066.13;;;12.45;100.00